createdAt,value
2017-08-31T00:01:02.339Z,22.60
2017-08-31T00:03:28.382Z,22.37
2017-08-31T00:05:54.410Z,22.80
2017-08-31T00:08:20.452Z,24.20
2017-08-31T00:10:46.509Z,24.40
2017-08-31T00:13:12.535Z,23.75
2017-08-31T00:15:38.543Z,25.50
2017-08-31T00:18:04.739Z,24.58
2017-08-31T00:20:30.761Z,25.80
2017-08-31T00:22:56.806Z,28.90
2017-08-31T00:25:22.818Z,29.08
2017-08-31T00:27:49.683Z,29.50
2017-08-31T00:30:15.737Z,30.40
2017-08-31T00:32:41.790Z,32.53
2017-08-31T00:35:07.807Z,34.75
2017-08-31T00:37:33.874Z,35.33
2017-08-31T00:39:59.910Z,35.95
2017-08-31T00:42:25.934Z,37.97
2017-08-31T00:44:52.013Z,42.58
2017-08-31T00:47:18.091Z,43.30
2017-08-31T00:49:44.157Z,46.33
2017-08-31T00:52:10.520Z,46.67
2017-08-31T00:54:36.554Z,46.22
2017-08-31T00:57:02.621Z,47.55
2017-08-31T00:59:28.685Z,49.55
2017-08-31T01:01:54.729Z,58.05
2017-08-31T01:04:20.758Z,56.10
2017-08-31T01:06:46.803Z,61.80
2017-08-31T01:09:12.836Z,62.85
2017-08-31T01:11:39.700Z,65.30
2017-08-31T01:14:05.849Z,65.03
2017-08-31T01:16:31.926Z,66.22
2017-08-31T01:18:57.934Z,66.00
2017-08-31T01:21:23.975Z,67.65
2017-08-31T01:23:50.006Z,66.10
2017-08-31T01:26:16.036Z,68.65
2017-08-31T01:28:42.216Z,69.80
2017-08-31T01:31:08.233Z,68.53
2017-08-31T01:33:34.254Z,68.07
2017-08-31T01:36:00.302Z,69.18
2017-08-31T01:38:26.338Z,70.18
2017-08-31T01:40:52.376Z,70.37
2017-08-31T01:43:18.699Z,69.62
2017-08-31T01:45:44.741Z,66.95
2017-08-31T01:48:10.763Z,69.90
2017-08-31T01:50:36.860Z,69.85
2017-08-31T01:53:02.878Z,68.63
2017-08-31T01:55:28.918Z,67.80
2017-08-31T01:57:55.009Z,69.35
2017-08-31T02:00:21.038Z,67.97
2017-08-31T02:02:47.062Z,67.68
2017-08-31T02:05:13.714Z,68.68
2017-08-31T02:07:39.724Z,68.97
2017-08-31T02:10:05.759Z,67.65
2017-08-31T02:12:31.992Z,69.80
2017-08-31T02:14:58.006Z,71.53
2017-08-31T02:17:24.056Z,70.32
2017-08-31T02:19:50.103Z,69.55
2017-08-31T02:22:16.167Z,69.45
2017-08-31T02:24:42.198Z,76.12
2017-08-31T02:27:08.623Z,68.78
2017-08-31T02:29:34.640Z,71.80
2017-08-31T02:32:00.674Z,74.87
2017-08-31T02:34:26.792Z,78.10
2017-08-31T02:36:52.822Z,82.68
2017-08-31T02:39:18.853Z,81.70
2017-08-31T02:41:44.934Z,86.18
2017-08-31T02:44:10.982Z,89.47
2017-08-31T02:46:37.010Z,93.30
2017-08-31T02:49:03.055Z,91.80
2017-08-31T02:51:29.109Z,91.25
2017-08-31T02:53:55.152Z,92.25
2017-08-31T02:56:21.490Z,88.37
2017-08-31T02:58:47.544Z,88.55
2017-08-31T03:01:13.721Z,85.43
2017-08-31T03:03:39.784Z,82.30
2017-08-31T03:06:05.822Z,78.15
2017-08-31T03:08:31.870Z,76.55
2017-08-31T03:10:57.923Z,77.75
2017-08-31T03:13:23.962Z,78.37
2017-08-31T03:15:49.999Z,77.47
2017-08-31T03:18:16.064Z,75.97
2017-08-31T03:20:42.110Z,79.25
2017-08-31T03:23:08.146Z,75.20
2017-08-31T03:25:34.456Z,73.60
2017-08-31T03:28:00.930Z,71.25
2017-08-31T03:30:26.983Z,68.47
2017-08-31T03:32:53.254Z,69.82
2017-08-31T03:35:19.297Z,69.10
2017-08-31T03:37:45.350Z,69.25
2017-08-31T03:40:11.420Z,69.45
2017-08-31T03:42:37.441Z,66.85
2017-08-31T03:45:03.469Z,69.07
2017-08-31T03:47:29.685Z,68.03
2017-08-31T03:49:55.718Z,65.93
2017-08-31T03:52:21.738Z,64.50
2017-08-31T03:54:47.811Z,63.00
2017-08-31T03:57:13.835Z,63.45
2017-08-31T03:59:39.941Z,61.28
2017-08-31T04:02:05.956Z,63.17
2017-08-31T04:04:31.963Z,62.08
2017-08-31T04:06:58.002Z,60.25
2017-08-31T04:09:24.027Z,58.03
2017-08-31T04:11:50.049Z,58.80
2017-08-31T04:14:16.140Z,57.95
2017-08-31T04:16:42.168Z,57.95
2017-08-31T04:19:08.196Z,54.88
2017-08-31T04:21:34.239Z,55.45
2017-08-31T04:24:00.306Z,53.40
2017-08-31T04:26:26.318Z,56.33
2017-08-31T04:28:52.370Z,53.45
2017-08-31T04:31:18.395Z,48.83
2017-08-31T04:33:44.417Z,48.40
2017-08-31T04:36:10.818Z,49.35
2017-08-31T04:38:36.842Z,46.95
2017-08-31T04:41:02.862Z,47.53
2017-08-31T04:43:28.913Z,46.30
2017-08-31T04:45:54.972Z,44.60
2017-08-31T04:48:21.006Z,44.72
2017-08-31T04:50:47.349Z,44.28
2017-08-31T04:53:13.372Z,45.75
2017-08-31T04:55:39.419Z,44.70
2017-08-31T04:58:05.489Z,44.20
2017-08-31T05:00:31.521Z,42.63
2017-08-31T05:02:57.564Z,38.75
2017-08-31T05:05:23.616Z,37.43
2017-08-31T05:07:49.665Z,34.85
2017-08-31T05:10:15.710Z,35.70
2017-08-31T05:12:41.802Z,36.72
2017-08-31T05:15:07.829Z,33.17
2017-08-31T05:17:33.873Z,32.90
2017-08-31T05:19:59.942Z,34.37
2017-08-31T05:22:25.984Z,33.67
2017-08-31T05:24:52.007Z,32.77
2017-08-31T05:27:18.188Z,31.92
2017-08-31T05:29:44.222Z,30.30
2017-08-31T05:32:10.259Z,31.23
2017-08-31T05:34:36.673Z,32.60
2017-08-31T05:37:02.718Z,29.90
2017-08-31T05:39:28.782Z,31.80
2017-08-31T05:41:54.886Z,30.30
2017-08-31T05:44:20.936Z,28.95
2017-08-31T05:46:46.988Z,29.70
2017-08-31T05:49:13.061Z,27.08
2017-08-31T05:51:39.182Z,24.60
2017-08-31T05:54:05.218Z,23.50
2017-08-31T05:56:31.324Z,21.80
2017-08-31T05:58:57.385Z,20.70
2017-08-31T06:01:23.450Z,19.65
2017-08-31T06:03:49.525Z,17.98
2017-08-31T06:06:15.550Z,18.73
2017-08-31T06:08:41.614Z,17.90
2017-08-31T06:11:07.666Z,17.15
2017-08-31T06:13:33.703Z,18.23
2017-08-31T06:15:59.768Z,18.35
2017-08-31T06:18:25.864Z,16.90
2017-08-31T06:20:51.958Z,15.63
2017-08-31T06:23:18.011Z,17.05
2017-08-31T06:25:44.066Z,16.83
2017-08-31T06:28:10.106Z,15.13
2017-08-31T06:30:36.175Z,13.90
2017-08-31T06:33:02.188Z,13.13
2017-08-31T06:35:28.471Z,12.60
2017-08-31T06:37:54.561Z,12.70
2017-08-31T06:40:20.585Z,11.48
2017-08-31T06:42:46.606Z,10.50
2017-08-31T06:45:12.910Z,10.27
2017-08-31T06:47:38.939Z,9.38
2017-08-31T06:50:04.958Z,9.43
2017-08-31T06:52:31.007Z,8.32
2017-08-31T06:54:57.078Z,8.15
2017-08-31T06:57:23.336Z,8.27
2017-08-31T06:59:49.363Z,7.80
2017-08-31T07:02:15.406Z,8.50
2017-08-31T07:04:41.698Z,9.03
2017-08-31T07:07:07.715Z,8.20
2017-08-31T07:09:33.742Z,7.82
2017-08-31T07:12:00.079Z,8.68
2017-08-31T07:14:26.107Z,8.60
2017-08-31T07:16:52.205Z,10.87
2017-08-31T07:19:18.229Z,10.75
2017-08-31T07:21:44.251Z,10.97
2017-08-31T07:24:10.288Z,10.23
2017-08-31T07:26:36.346Z,9.60
2017-08-31T07:29:02.414Z,9.75
2017-08-31T07:31:28.651Z,8.93
2017-08-31T07:33:54.665Z,9.70
2017-08-31T07:36:20.695Z,8.30
2017-08-31T07:38:47.121Z,7.18
2017-08-31T07:41:13.134Z,7.45
2017-08-31T07:43:39.162Z,7.30
2017-08-31T07:46:05.214Z,7.10
2017-08-31T07:48:31.270Z,7.00
2017-08-31T07:50:57.327Z,7.75
2017-08-31T07:53:23.406Z,13.57
2017-08-31T07:55:49.434Z,12.88
2017-08-31T07:58:15.482Z,11.77
2017-08-31T08:00:41.539Z,11.93
2017-08-31T08:03:07.562Z,11.73
2017-08-31T08:05:33.570Z,10.20
2017-08-31T08:07:59.634Z,10.82
2017-08-31T08:10:25.668Z,9.40
2017-08-31T08:12:52.127Z,8.23
2017-08-31T08:15:18.130Z,7.18
2017-08-31T08:17:44.146Z,5.00
2017-08-31T08:20:10.189Z,4.47
2017-08-31T08:22:36.228Z,3.90
2017-08-31T08:25:02.247Z,4.00
2017-08-31T08:27:28.454Z,4.37
2017-08-31T08:29:54.480Z,3.50
2017-08-31T08:32:20.510Z,3.30
2017-08-31T08:34:46.587Z,2.80
2017-08-31T08:37:12.598Z,3.00
2017-08-31T08:39:38.617Z,3.20
2017-08-31T08:42:04.639Z,2.67
2017-08-31T08:44:30.671Z,2.60
2017-08-31T08:46:56.718Z,2.20
2017-08-31T08:49:22.764Z,2.67
2017-08-31T08:51:48.798Z,2.22
2017-08-31T08:54:15.202Z,2.50
2017-08-31T08:56:41.277Z,24.97
2017-08-31T08:59:07.298Z,27.02
2017-08-31T09:01:33.362Z,48.15
2017-08-31T09:03:59.395Z,3.90
2017-08-31T09:06:25.417Z,2.70
2017-08-31T09:08:51.470Z,2.20
2017-08-31T09:11:17.574Z,2.03
2017-08-31T09:13:43.667Z,2.40
2017-08-31T09:16:09.718Z,2.20
2017-08-31T09:18:35.742Z,2.37
2017-08-31T09:21:01.758Z,2.30
2017-08-31T09:23:27.822Z,2.30
2017-08-31T09:25:53.858Z,2.50
2017-08-31T09:28:19.900Z,2.60
2017-08-31T09:30:45.992Z,2.40
2017-08-31T09:33:12.026Z,2.50
2017-08-31T09:35:38.076Z,2.90
2017-08-31T09:38:04.169Z,2.60
2017-08-31T09:40:30.194Z,2.37
2017-08-31T09:42:56.222Z,2.20
2017-08-31T09:45:22.269Z,2.70
2017-08-31T09:47:48.266Z,2.50
2017-08-31T09:50:14.314Z,2.50
2017-08-31T09:52:40.359Z,2.40
2017-08-31T09:55:06.398Z,2.30
2017-08-31T09:57:32.421Z,2.23
2017-08-31T09:59:58.483Z,2.50
2017-08-31T10:02:24.506Z,2.40
2017-08-31T10:04:50.542Z,2.80
2017-08-31T10:07:16.590Z,2.40
2017-08-31T10:09:42.607Z,2.10
2017-08-31T10:12:08.641Z,2.40
2017-08-31T10:14:34.694Z,2.37
2017-08-31T10:17:00.722Z,2.43
2017-08-31T10:19:26.728Z,2.65
2017-08-31T10:21:53.105Z,2.80
2017-08-31T10:24:19.130Z,3.05
2017-08-31T10:26:45.172Z,2.83
2017-08-31T10:29:11.228Z,2.60
2017-08-31T10:31:37.254Z,2.70
2017-08-31T10:34:03.296Z,2.78
2017-08-31T10:36:29.387Z,2.50
2017-08-31T10:38:55.410Z,2.73
2017-08-31T10:41:21.456Z,2.70
2017-08-31T10:43:47.510Z,2.90
2017-08-31T10:46:13.566Z,3.08
2017-08-31T10:48:39.618Z,3.13
2017-08-31T10:51:05.636Z,3.00
2017-08-31T10:53:31.650Z,3.10
2017-08-31T10:55:57.706Z,3.40
2017-08-31T10:58:23.730Z,3.13
2017-08-31T11:00:49.774Z,3.10
2017-08-31T11:03:15.831Z,3.67
2017-08-31T11:05:41.850Z,4.30
2017-08-31T11:08:07.907Z,3.60
2017-08-31T11:10:33.977Z,3.92
2017-08-31T11:13:00.025Z,4.12
2017-08-31T11:15:26.069Z,4.20
2017-08-31T11:17:52.126Z,3.67
2017-08-31T11:20:18.150Z,3.58
2017-08-31T11:22:44.211Z,3.25
2017-08-31T11:25:11.786Z,3.58
2017-08-31T11:27:37.928Z,3.35
2017-08-31T11:30:03.994Z,3.20
2017-08-31T11:32:29.950Z,3.42
2017-08-31T11:34:56.456Z,3.40
2017-08-31T11:37:22.495Z,3.50
2017-08-31T11:39:48.440Z,4.03
2017-08-31T11:42:14.488Z,3.53
2017-08-31T11:44:40.483Z,3.65
2017-08-31T11:47:06.534Z,3.80
2017-08-31T11:49:32.543Z,3.30
2017-08-31T11:51:58.542Z,4.05
2017-08-31T11:54:24.583Z,4.00
2017-08-31T11:56:50.615Z,3.80
2017-08-31T11:59:16.815Z,4.10
2017-08-31T12:01:42.946Z,4.00
2017-08-31T12:04:09.007Z,4.47
2017-08-31T12:06:35.314Z,4.90
2017-08-31T12:09:01.334Z,5.40
2017-08-31T12:11:27.396Z,9.93
2017-08-31T12:13:53.772Z,5.10
2017-08-31T12:16:19.810Z,4.80
2017-08-31T12:18:45.839Z,5.70
2017-08-31T12:21:11.913Z,5.23
2017-08-31T12:23:37.945Z,5.30
2017-08-31T12:26:03.954Z,5.40
2017-08-31T12:28:30.197Z,4.90
2017-08-31T12:30:56.223Z,5.00
2017-08-31T12:33:22.240Z,5.70
2017-08-31T12:35:48.465Z,5.57
2017-08-31T12:38:14.498Z,5.50
2017-08-31T12:40:40.530Z,5.47
2017-08-31T12:43:06.617Z,5.25
2017-08-31T12:45:32.656Z,5.90
2017-08-31T12:47:58.707Z,5.12
2017-08-31T12:50:24.910Z,5.78
2017-08-31T12:52:50.937Z,5.30
2017-08-31T12:55:19.275Z,5.60
2017-08-31T12:57:45.352Z,5.07
2017-08-31T13:00:11.410Z,5.10
2017-08-31T13:02:37.534Z,5.03
2017-08-31T13:05:04.621Z,4.80
2017-08-31T13:07:30.678Z,4.82
2017-08-31T13:09:56.989Z,5.15
2017-08-31T13:12:23.255Z,4.82
2017-08-31T13:14:49.777Z,5.10
2017-08-31T13:17:16.211Z,5.40
2017-08-31T13:19:42.825Z,5.28
2017-08-31T13:22:09.688Z,4.78
2017-08-31T13:24:36.040Z,5.10
2017-08-31T13:27:04.640Z,5.18
2017-08-31T13:29:31.100Z,5.57
2017-08-31T13:31:57.592Z,5.50
2017-08-31T13:34:24.336Z,5.10
2017-08-31T13:36:51.101Z,5.37
2017-08-31T13:39:17.418Z,5.20
2017-08-31T13:41:43.917Z,5.30
2017-08-31T13:44:10.149Z,5.53
2017-08-31T13:46:36.569Z,5.50
2017-08-31T13:49:02.748Z,5.80
2017-08-31T13:51:29.220Z,5.32
2017-08-31T13:53:55.516Z,4.60
2017-08-31T13:56:21.797Z,4.10
2017-08-31T13:58:47.914Z,4.27
2017-08-31T14:01:14.106Z,3.97
2017-08-31T14:03:40.122Z,4.20
2017-08-31T14:06:06.186Z,4.07
2017-08-31T14:08:32.238Z,4.20
2017-08-31T14:10:58.310Z,4.60
2017-08-31T14:13:24.353Z,4.18
2017-08-31T14:15:50.389Z,4.20
2017-08-31T14:18:16.419Z,3.60
2017-08-31T14:20:42.748Z,4.12
2017-08-31T14:23:08.805Z,4.47
2017-08-31T14:25:34.821Z,4.60
2017-08-31T14:28:01.141Z,4.35
2017-08-31T14:30:27.223Z,4.90
2017-08-31T14:32:53.282Z,4.62
2017-08-31T14:35:19.582Z,5.68
2017-08-31T14:37:46.103Z,5.20
2017-08-31T14:40:12.148Z,5.33
2017-08-31T14:42:38.223Z,5.30
2017-08-31T14:45:04.266Z,5.20
2017-08-31T14:47:30.311Z,4.60
2017-08-31T14:49:56.535Z,5.23
2017-08-31T14:52:22.567Z,4.70
2017-08-31T14:54:48.605Z,4.43
2017-08-31T14:57:15.010Z,4.10
2017-08-31T14:59:41.066Z,4.20
2017-08-31T15:02:07.128Z,3.72
2017-08-31T15:04:33.186Z,3.72
2017-08-31T15:06:59.220Z,3.95
2017-08-31T15:09:25.256Z,3.78
2017-08-31T15:11:51.658Z,3.30
2017-08-31T15:14:17.712Z,3.80
2017-08-31T15:16:43.736Z,3.40
2017-08-31T15:19:10.122Z,3.93
2017-08-31T15:21:36.147Z,3.30
2017-08-31T15:24:02.215Z,3.00
2017-08-31T15:26:28.242Z,3.25
2017-08-31T15:28:54.290Z,3.00
2017-08-31T15:31:20.340Z,3.00
2017-08-31T15:33:46.378Z,2.58
2017-08-31T15:36:12.430Z,2.80
2017-08-31T15:38:38.909Z,3.20
2017-08-31T15:41:04.951Z,3.20
2017-08-31T15:43:30.981Z,2.80
2017-08-31T15:45:57.276Z,3.00
2017-08-31T15:48:23.302Z,2.80
2017-08-31T15:50:49.318Z,2.80
2017-08-31T15:53:15.564Z,2.80
2017-08-31T15:55:41.608Z,2.58
2017-08-31T15:58:07.647Z,2.28
2017-08-31T16:00:33.690Z,2.25
2017-08-31T16:02:59.764Z,1.70
2017-08-31T16:05:25.774Z,1.58
2017-08-31T16:07:51.802Z,1.50
2017-08-31T16:10:17.822Z,1.40
2017-08-31T16:12:43.846Z,1.40
2017-08-31T16:15:10.217Z,1.50
2017-08-31T16:17:36.250Z,1.30
2017-08-31T16:20:02.289Z,1.47
2017-08-31T16:22:28.319Z,1.70
2017-08-31T16:24:54.342Z,1.47
2017-08-31T16:27:20.790Z,1.40
2017-08-31T16:29:46.814Z,1.20
2017-08-31T16:32:12.842Z,1.40
2017-08-31T16:34:38.925Z,1.50
2017-08-31T16:37:04.968Z,1.20
2017-08-31T16:39:31.273Z,1.30
2017-08-31T16:41:57.730Z,4.90
2017-08-31T16:44:23.758Z,3.33
2017-08-31T16:46:49.813Z,1.77
2017-08-31T16:49:16.079Z,2.00
2017-08-31T16:51:42.119Z,1.50
2017-08-31T16:54:08.160Z,1.60
2017-08-31T16:56:34.248Z,1.70
2017-08-31T16:59:00.374Z,1.98
2017-08-31T17:01:26.395Z,2.10
2017-08-31T17:03:52.446Z,66.85
2017-08-31T17:06:18.472Z,20.45
2017-08-31T17:08:44.525Z,13.82
2017-08-31T17:11:10.891Z,2.10
2017-08-31T17:13:37.891Z,2.30
2017-08-31T17:16:04.019Z,2.20
2017-08-31T17:18:30.142Z,1.80
2017-08-31T17:20:56.184Z,2.10
2017-08-31T17:23:22.205Z,2.22
2017-08-31T17:25:48.242Z,2.10
2017-08-31T17:28:14.262Z,2.20
2017-08-31T17:30:40.324Z,2.30
2017-08-31T17:33:06.533Z,2.08
2017-08-31T17:35:32.574Z,2.40
2017-08-31T17:37:58.607Z,1.80
2017-08-31T17:40:24.881Z,1.77
2017-08-31T17:42:50.961Z,2.03
2017-08-31T17:45:17.011Z,2.17
2017-08-31T17:47:43.162Z,2.20
2017-08-31T17:50:09.212Z,2.12
2017-08-31T17:52:35.279Z,2.00
2017-08-31T17:55:01.351Z,2.28
2017-08-31T17:57:27.386Z,2.00
2017-08-31T17:59:53.431Z,2.10
2017-08-31T18:02:19.491Z,1.90
2017-08-31T18:04:45.509Z,2.20
2017-08-31T18:07:11.571Z,2.00
2017-08-31T18:09:37.859Z,2.10
2017-08-31T18:12:03.988Z,2.22
2017-08-31T18:14:30.110Z,2.10
2017-08-31T18:16:56.439Z,2.30
2017-08-31T18:19:22.880Z,2.00
2017-08-31T18:21:48.926Z,2.17
2017-08-31T18:24:20.238Z,2.62
2017-08-31T18:26:48.411Z,2.30
2017-08-31T18:29:14.488Z,2.60
2017-08-31T18:31:40.776Z,2.30
2017-08-31T18:34:06.973Z,2.60
2017-08-31T18:36:32.998Z,2.60
2017-08-31T18:38:59.882Z,2.50
2017-08-31T18:41:25.898Z,2.92
2017-08-31T18:43:51.942Z,3.00
2017-08-31T18:46:17.966Z,2.85
2017-08-31T18:48:44.022Z,3.00
2017-08-31T18:51:10.481Z,3.20
2017-08-31T18:53:36.515Z,3.12
2017-08-31T18:56:02.581Z,2.92
2017-08-31T18:58:28.641Z,2.80
2017-08-31T19:00:54.751Z,3.75
2017-08-31T19:03:20.790Z,3.25
2017-08-31T19:05:46.826Z,3.40
2017-08-31T19:08:12.871Z,3.50
2017-08-31T19:10:38.896Z,3.35
2017-08-31T19:13:04.959Z,3.37
2017-08-31T19:15:30.996Z,3.00
2017-08-31T19:17:57.050Z,3.67
2017-08-31T19:20:23.108Z,3.20
2017-08-31T19:22:49.149Z,3.60
2017-08-31T19:25:16.783Z,3.53
2017-08-31T19:27:42.828Z,3.72
2017-08-31T19:30:09.144Z,3.08
2017-08-31T19:32:35.530Z,3.40
2017-08-31T19:35:01.743Z,3.20
2017-08-31T19:37:28.045Z,3.00
2017-08-31T19:39:54.193Z,3.50
2017-08-31T19:42:20.343Z,80.85
2017-08-31T19:44:46.959Z,11.97
2017-08-31T19:47:13.194Z,31.30
2017-08-31T19:49:39.482Z,12.27
2017-08-31T19:52:05.732Z,67.00
2017-08-31T19:54:31.950Z,70.57
2017-08-31T19:56:59.930Z,96.25
2017-08-31T19:59:29.471Z,11.50
2017-08-31T20:01:55.699Z,3.40
2017-08-31T20:06:55.234Z,3.50
2017-08-31T20:09:21.415Z,3.80
2017-08-31T20:11:47.671Z,3.30
2017-08-31T20:14:14.107Z,3.30
2017-08-31T20:16:40.268Z,3.67
2017-08-31T20:19:06.509Z,3.37
2017-08-31T20:21:32.588Z,3.80
2017-08-31T20:23:59.114Z,3.67
2017-08-31T20:26:25.359Z,3.95
2017-08-31T20:28:51.578Z,3.40
2017-08-31T20:31:17.773Z,3.80
2017-08-31T20:33:43.931Z,4.00
2017-08-31T20:36:10.224Z,3.90
2017-08-31T20:38:36.438Z,4.20
2017-08-31T20:41:02.691Z,4.00
2017-08-31T20:43:28.907Z,3.80
2017-08-31T20:45:55.082Z,4.05
2017-08-31T20:48:21.296Z,4.15
2017-08-31T20:50:47.531Z,4.20
2017-08-31T20:53:13.680Z,4.10
2017-08-31T20:55:39.979Z,3.80
2017-08-31T20:58:06.335Z,3.75
2017-08-31T21:00:32.497Z,3.87
2017-08-31T21:02:58.718Z,3.72
2017-08-31T21:05:24.980Z,4.18
2017-08-31T21:07:51.113Z,4.07
2017-08-31T21:10:17.339Z,3.70
2017-08-31T21:12:44.549Z,4.10
2017-08-31T21:15:10.742Z,4.20
2017-08-31T21:17:36.938Z,3.70
2017-08-31T21:20:03.358Z,3.72
2017-08-31T21:22:29.550Z,3.97
2017-08-31T21:24:55.724Z,4.32
2017-08-31T21:27:22.221Z,3.97
2017-08-31T21:29:48.426Z,3.70
2017-08-31T21:32:14.641Z,3.90
2017-08-31T21:34:41.056Z,3.70
2017-08-31T21:37:07.127Z,3.83
2017-08-31T21:39:33.199Z,3.80
2017-08-31T21:41:59.259Z,3.70
2017-08-31T21:44:25.328Z,3.80
2017-08-31T21:46:51.554Z,4.28
2017-08-31T21:49:17.588Z,3.80
2017-08-31T21:51:43.637Z,4.03
2017-08-31T21:54:09.906Z,4.15
2017-08-31T21:56:35.922Z,3.95
2017-08-31T21:59:01.962Z,3.47
2017-08-31T22:01:28.039Z,4.22
2017-08-31T22:03:54.058Z,3.78
2017-08-31T22:06:20.110Z,4.40
2017-08-31T22:08:46.460Z,3.70
2017-08-31T22:11:12.478Z,4.00
2017-08-31T22:13:38.502Z,3.60
2017-08-31T22:16:04.590Z,3.60
2017-08-31T22:18:30.631Z,3.62
2017-08-31T22:20:56.682Z,3.80
2017-08-31T22:23:22.690Z,3.85
2017-08-31T22:25:48.718Z,4.40
2017-08-31T22:28:15.378Z,3.83
2017-08-31T22:30:41.403Z,3.50
2017-08-31T22:33:07.566Z,4.10
2017-08-31T22:35:33.631Z,3.53
2017-08-31T22:37:59.654Z,3.80
2017-08-31T22:40:25.716Z,3.90
2017-08-31T22:42:51.817Z,3.37
2017-08-31T22:45:17.843Z,3.45
2017-08-31T22:47:43.866Z,3.47
2017-08-31T22:50:09.934Z,3.40
2017-08-31T22:52:35.985Z,3.47
2017-08-31T22:55:14.338Z,4.10
2017-08-31T22:57:52.873Z,4.90
2017-08-31T23:00:19.514Z,4.60
2017-08-31T23:02:45.606Z,4.60
2017-08-31T23:05:11.758Z,4.70
2017-08-31T23:07:37.982Z,4.78
2017-08-31T23:10:04.260Z,4.03
2017-08-31T23:12:30.390Z,4.10
2017-08-31T23:14:57.261Z,3.83
2017-08-31T23:20:00.131Z,4.10
2017-08-31T23:22:26.319Z,3.90
2017-08-31T23:24:52.499Z,3.83
2017-08-31T23:27:18.683Z,3.70
2017-08-31T23:29:44.912Z,4.17
2017-08-31T23:32:10.973Z,3.72
2017-08-31T23:34:37.103Z,4.05
2017-08-31T23:37:03.125Z,3.12
2017-08-31T23:39:29.146Z,3.78
2017-08-31T23:41:55.196Z,3.70
2017-08-31T23:44:21.405Z,3.75
2017-08-31T23:46:47.426Z,3.90
2017-08-31T23:49:13.478Z,3.03
2017-08-31T23:51:39.490Z,3.80
2017-08-31T23:54:05.574Z,3.30
2017-08-31T23:56:31.622Z,3.78
2017-08-31T23:58:57.650Z,3.70
